Time;durP1;ratioP1;P1;durP2;ratioP2;P2;SDS_P1;SDS_P2;PMS_P1;PMS_P2;Temp;Humidity;BMP_temperature;BMP_pressure;BME280_temperature;BME280_humidity;BME280_pressure;Samples;Min_cycle;Max_cycle;Signal;HPM_P1;HPM_P2
2021/12/19 00:01:21;;;;;;;;;;;23.80;52.30;;;;;;1530433;76;708;-64
2021/12/19 00:10:03;;;;;;;;;;;23.90;52.30;;;;;;1519899;76;729;-66
2021/12/19 00:12:06;;;;;;;;;;;23.70;52.30;;;;;;1535557;76;802;-67
2021/12/19 00:14:07;;;;;;;;;;;23.70;52.30;;;;;;1523757;76;1940;-69
2021/12/19 00:16:09;;;;;;;;;;;23.80;52.30;;;;;;1521020;76;1160;-66
2021/12/19 00:18:11;;;;;;;;;;;23.80;52.30;;;;;;1519439;76;776;-65
2021/12/19 00:20:13;;;;;;;;;;;23.90;52.40;;;;;;1530694;76;784;-66
2021/12/19 00:22:15;;;;;;;;;;;23.80;52.30;;;;;;1521293;76;769;-66
2021/12/19 00:24:17;;;;;;;;;;;23.80;52.30;;;;;;1524841;76;686;-66
2021/12/19 00:26:19;;;;;;;;;;;23.70;52.20;;;;;;1521198;76;1168;-65
2021/12/19 00:28:21;;;;;;;;;;;23.80;52.20;;;;;;1525608;76;776;-66
2021/12/19 00:30:22;;;;;;;;;;;23.80;52.20;;;;;;1522820;76;764;-68
2021/12/19 00:32:24;;;;;;;;;;;23.80;52.30;;;;;;1524588;76;804;-66
2021/12/19 00:34:26;;;;;;;;;;;23.80;52.30;;;;;;1520852;76;1934;-66
2021/12/19 00:36:28;;;;;;;;;;;23.90;52.40;;;;;;1527107;76;1161;-66
2021/12/19 00:38:30;;;;;;;;;;;23.80;52.30;;;;;;1544133;77;721;-65
2021/12/19 00:40:36;;;;;;;;;;;23.80;52.30;;;;;;1551997;76;736;-66
2021/12/19 00:42:38;;;;;;;;;;;23.80;52.30;;;;;;1525517;76;714;-66
2021/12/19 00:44:42;;;;;;;;;;;23.80;52.30;;;;;;1538931;76;766;-66
2021/12/19 00:46:50;;;;;;;;;;;23.70;52.30;;;;;;1544471;76;1126;-67
2021/12/19 00:48:51;;;;;;;;;;;23.80;52.40;;;;;;1543769;76;1436;-67
2021/12/19 00:50:53;;;;;;;;;;;23.80;52.50;;;;;;1538588;77;756;-66
2021/12/19 00:52:55;;;;;;;;;;;23.80;52.40;;;;;;1530431;77;764;-66
2021/12/19 00:54:57;;;;;;;;;;;23.80;52.40;;;;;;1536645;76;1940;-69
2021/12/19 00:56:59;;;;;;;;;;;23.90;52.50;;;;;;1524399;76;1222;-66
2021/12/19 00:59:01;;;;;;;;;;;23.80;52.40;;;;;;1524827;76;752;-67
2021/12/19 01:01:03;;;;;;;;;;;23.80;52.40;;;;;;1542124;76;796;-66
2021/12/19 01:03:05;;;;;;;;;;;23.90;52.60;;;;;;1545185;76;742;-66
2021/12/19 01:05:07;;;;;;;;;;;23.90;52.60;;;;;;1539870;76;684;-67
2021/12/19 01:07:09;;;;;;;;;;;23.80;52.40;;;;;;1540608;77;1188;-66
2021/12/19 01:09:11;;;;;;;;;;;23.90;52.60;;;;;;1526878;76;724;-67
2021/12/19 01:11:13;;;;;;;;;;;23.80;52.40;;;;;;1523970;76;741;-67
2021/12/19 01:13:15;;;;;;;;;;;23.80;52.40;;;;;;1542766;76;725;-66
2021/12/19 01:15:17;;;;;;;;;;;23.80;52.40;;;;;;1547623;76;1947;-66
2021/12/19 01:17:19;;;;;;;;;;;23.80;52.30;;;;;;1527784;76;736;-66
2021/12/19 01:19:22;;;;;;;;;;;23.80;52.30;;;;;;1532721;76;682;-67
2021/12/19 01:21:24;;;;;;;;;;;23.80;52.20;;;;;;1543415;76;696;-67
2021/12/19 01:23:26;;;;;;;;;;;23.80;52.20;;;;;;1536581;76;718;-66
2021/12/19 01:25:28;;;;;;;;;;;23.90;52.30;;;;;;1529815;76;1139;-67
2021/12/19 01:27:30;;;;;;;;;;;23.80;52.10;;;;;;1534668;76;754;-68
2021/12/19 01:29:32;;;;;;;;;;;23.80;52.20;;;;;;1524154;76;738;-67
2021/12/19 01:31:34;;;;;;;;;;;23.80;52.10;;;;;;1518402;76;733;-68
2021/12/19 01:33:36;;;;;;;;;;;23.80;52.10;;;;;;1537398;76;1931;-67
2021/12/19 01:35:38;;;;;;;;;;;23.80;52.20;;;;;;1531894;76;1155;-66
2021/12/19 01:37:39;;;;;;;;;;;23.90;52.30;;;;;;1533356;77;729;-68
2021/12/19 01:39:41;;;;;;;;;;;23.80;52.20;;;;;;1503982;78;722;-67
2021/12/19 01:41:49;;;;;;;;;;;23.80;52.20;;;;;;1501192;78;723;-67
2021/12/19 01:43:51;;;;;;;;;;;23.80;52.30;;;;;;1560062;74;806;-67
2021/12/19 01:45:53;;;;;;;;;;;23.80;52.20;;;;;;1562108;74;1134;-66
2021/12/19 01:47:55;;;;;;;;;;;23.80;52.20;;;;;;1585380;74;725;-66
2021/12/19 01:49:57;;;;;;;;;;;23.90;52.20;;;;;;1569138;74;765;-66
2021/12/19 01:51:59;;;;;;;;;;;23.80;52.10;;;;;;1560732;74;799;-65
2021/12/19 01:54:01;;;;;;;;;;;23.80;52.00;;;;;;1584193;74;1899;-67
2021/12/19 01:56:05;;;;;;;;;;;23.80;52.10;;;;;;1582096;74;1125;-66
2021/12/19 01:58:06;;;;;;;;;;;23.70;52.00;;;;;;1576073;74;1611;-67
2021/12/19 02:00:08;;;;;;;;;;;23.80;52.00;;;;;;1549462;75;667;-67
2021/12/19 02:02:10;;;;;;;;;;;23.80;51.90;;;;;;1485634;79;1185;-67
2021/12/19 02:04:12;;;;;;;;;;;23.80;51.90;;;;;;1514065;78;737;-68
2021/12/19 02:06:14;;;;;;;;;;;23.80;51.90;;;;;;1549002;76;1153;-67
2021/12/19 02:08:17;;;;;;;;;;;23.80;51.90;;;;;;1526886;76;753;-66
2021/12/19 02:10:19;;;;;;;;;;;23.80;51.90;;;;;;1543455;76;752;-68
2021/12/19 02:12:21;;;;;;;;;;;23.70;51.90;;;;;;1545631;76;722;-67
2021/12/19 02:14:23;;;;;;;;;;;23.80;51.90;;;;;;1528556;76;1938;-67
2021/12/19 02:16:25;;;;;;;;;;;23.80;52.00;;;;;;1535077;76;1134;-67
2021/12/19 02:18:26;;;;;;;;;;;23.70;52.00;;;;;;1534128;76;764;-67
2021/12/19 02:20:32;;;;;;;;;;;23.80;51.90;;;;;;1529187;76;720;-67
2021/12/19 02:22:34;;;;;;;;;;;23.80;51.90;;;;;;1532754;76;805;-68
2021/12/19 02:24:36;;;;;;;;;;;23.70;51.90;;;;;;1541735;76;649;-67
2021/12/19 02:26:38;;;;;;;;;;;23.80;52.00;;;;;;1527370;76;1125;-68
2021/12/19 02:28:40;;;;;;;;;;;23.70;51.90;;;;;;1505968;77;753;-67
2021/12/19 02:30:42;;;;;;;;;;;23.70;51.90;;;;;;1497527;77;684;-67
2021/12/19 02:32:44;;;;;;;;;;;23.80;51.90;;;;;;1548222;76;711;-66
2021/12/19 02:34:48;;;;;;;;;;;23.70;51.90;;;;;;1501451;78;2086;-65
2021/12/19 02:37:00;;;;;;;;;;;23.80;51.90;;;;;;1504986;78;1668;-66
2021/12/19 02:39:33;;;;;;;;;;;23.80;51.90;;;;;;1532804;77;1615;-67
2021/12/19 02:48:38;;;;;;;;;;;23.80;52.00;;;;;;1499782;78;681;-67
2021/12/19 02:50:50;;;;;;;;;;;23.70;52.00;;;;;;1500554;77;808;-67
2021/12/19 02:52:47;;;;;;;;;;;23.70;52.00;;;;;;1509290;78;1609;-67
2021/12/19 02:54:49;;;;;;;;;;;23.80;51.90;;;;;;1498531;78;1939;-67
2021/12/19 02:56:51;;;;;;;;;;;23.80;51.90;;;;;;1536707;76;1192;-67
2021/12/19 02:58:53;;;;;;;;;;;23.80;51.90;;;;;;1507013;77;829;-66
2021/12/19 03:00:55;;;;;;;;;;;23.80;51.90;;;;;;1514520;77;733;-67
2021/12/19 03:02:57;;;;;;;;;;;23.70;51.90;;;;;;1514162;78;714;-67
2021/12/19 03:05:00;;;;;;;;;;;23.80;51.90;;;;;;1558069;74;721;-68
2021/12/19 03:07:02;;;;;;;;;;;23.70;51.90;;;;;;1572295;74;1141;-68
2021/12/19 03:09:08;;;;;;;;;;;23.70;51.90;;;;;;1577719;74;729;-69
2021/12/19 03:18:00;;;;;;;;;;;23.80;51.90;;;;;;1553408;74;661;-67
2021/12/19 03:20:02;;;;;;;;;;;23.80;51.90;;;;;;1558296;74;694;-68
2021/12/19 03:22:04;;;;;;;;;;;23.70;51.90;;;;;;1558635;74;725;-66
2021/12/19 03:24:06;;;;;;;;;;;23.70;51.90;;;;;;1565399;74;700;-68
2021/12/19 03:26:08;;;;;;;;;;;23.70;51.80;;;;;;1550477;74;1159;-68
2021/12/19 03:28:10;;;;;;;;;;;23.70;51.80;;;;;;1576554;74;627;-67
2021/12/19 03:30:12;;;;;;;;;;;23.70;51.80;;;;;;1568936;74;729;-67
2021/12/19 03:32:14;;;;;;;;;;;23.80;51.80;;;;;;1566068;74;742;-69
2021/12/19 03:34:16;;;;;;;;;;;23.70;51.80;;;;;;1557113;74;758;-68
2021/12/19 03:36:17;;;;;;;;;;;23.80;51.80;;;;;;1578586;74;1174;-67
2021/12/19 03:38:19;;;;;;;;;;;23.80;51.80;;;;;;1580278;74;593;-65
2021/12/19 03:40:35;;;;;;;;;;;23.70;51.80;;;;;;1575802;74;730;-66
2021/12/19 03:42:25;;;;;;;;;;;23.80;51.80;;;;;;1562616;74;1603;-66
2021/12/19 03:44:27;;;;;;;;;;;23.80;51.90;;;;;;1577916;74;588;-66
2021/12/19 03:46:29;;;;;;;;;;;23.80;51.80;;;;;;1585517;74;1137;-66
2021/12/19 03:48:31;;;;;;;;;;;23.90;51.80;;;;;;1551439;74;715;-67
2021/12/19 03:50:35;;;;;;;;;;;23.90;51.80;;;;;;1504325;77;761;-66
2021/12/19 03:52:37;;;;;;;;;;;23.90;51.80;;;;;;1525971;77;961;-67
2021/12/19 03:54:39;;;;;;;;;;;23.90;51.80;;;;;;1507105;77;1946;-67
2021/12/19 03:56:41;;;;;;;;;;;23.90;51.80;;;;;;1520178;77;1182;-68
2021/12/19 03:58:43;;;;;;;;;;;24.00;51.80;;;;;;1490829;78;730;-65
2021/12/19 04:00:45;;;;;;;;;;;23.90;51.70;;;;;;1488191;78;757;-65
2021/12/19 04:02:47;;;;;;;;;;;24.00;51.60;;;;;;1502086;78;729;-65
2021/12/19 04:04:49;;;;;;;;;;;24.00;51.50;;;;;;1501396;78;715;-65
2021/12/19 04:06:51;;;;;;;;;;;24.00;51.50;;;;;;1499487;78;1158;-64
2021/12/19 04:08:56;;;;;;;;;;;24.00;51.50;;;;;;1494477;78;822;-66
2021/12/19 04:10:57;;;;;;;;;;;24.00;51.50;;;;;;1495332;78;1598;-65
2021/12/19 04:12:58;;;;;;;;;;;24.10;51.50;;;;;;1504844;78;655;-65
2021/12/19 04:15:00;;;;;;;;;;;24.00;51.40;;;;;;1509840;78;1938;-66
2021/12/19 04:17:02;;;;;;;;;;;24.00;51.20;;;;;;1510637;78;1119;-65
2021/12/19 04:19:04;;;;;;;;;;;24.10;51.30;;;;;;1494989;78;716;-65
2021/12/19 04:21:06;;;;;;;;;;;24.20;51.30;;;;;;1493391;78;688;-65
2021/12/19 04:23:08;;;;;;;;;;;24.10;51.20;;;;;;1493524;78;692;-65
2021/12/19 04:25:10;;;;;;;;;;;24.10;51.00;;;;;;1502165;78;708;-65
2021/12/19 04:27:12;;;;;;;;;;;24.20;51.00;;;;;;1508901;78;1231;-65
2021/12/19 04:29:14;;;;;;;;;;;24.20;50.90;;;;;;1510814;78;727;-65
2021/12/19 04:31:16;;;;;;;;;;;24.20;50.90;;;;;;1513895;78;923;-66
2021/12/19 04:33:17;;;;;;;;;;;24.20;50.90;;;;;;1513800;78;747;-65
2021/12/19 04:35:19;;;;;;;;;;;24.20;50.90;;;;;;1492482;78;1937;-65
2021/12/19 04:39:40;;;;;;;;;;;24.00;51.00;;;;;;1507390;78;803;-65
2021/12/19 04:42:22;;;;;;;;;;;24.10;51.10;;;;;;1490950;78;1694;-65
2021/12/19 04:53:18;;;;;;;;;;;24.20;50.60;;;;;;1491837;78;687;-65
2021/12/19 04:55:34;;;;;;;;;;;24.20;50.60;;;;;;1489554;78;1919;-65
2021/12/19 04:57:37;;;;;;;;;;;24.20;50.60;;;;;;1505526;77;1627;-65
2021/12/19 04:59:51;;;;;;;;;;;24.20;50.50;;;;;;1523110;76;1651;-65
2021/12/19 05:03:49;;;;;;;;;;;24.20;50.50;;;;;;1493258;78;1195;-65
2021/12/19 05:14:54;;;;;;;;;;;24.30;50.30;;;;;;1557692;74;1925;-65
2021/12/19 05:17:02;;;;;;;;;;;24.30;50.30;;;;;;1564198;74;1096;-65
2021/12/19 05:19:06;;;;;;;;;;;24.30;50.30;;;;;;1546702;74;1631;-65
2021/12/19 05:21:09;;;;;;;;;;;24.30;50.40;;;;;;1577635;74;1554;-65
2021/12/19 05:23:22;;;;;;;;;;;24.30;50.40;;;;;;1549022;76;1600;-65
2021/12/19 05:25:17;;;;;;;;;;;24.30;50.40;;;;;;1563247;74;1594;-65
2021/12/19 05:27:19;;;;;;;;;;;24.30;50.40;;;;;;1585653;74;696;-66
2021/12/19 05:29:21;;;;;;;;;;;24.30;50.40;;;;;;1557723;74;788;-64
2021/12/19 05:31:22;;;;;;;;;;;24.20;50.30;;;;;;1556150;74;727;-65
2021/12/19 05:33:24;;;;;;;;;;;24.20;50.30;;;;;;1558224;74;725;-65
2021/12/19 05:46:49;;;;;;;;;;;24.20;50.30;;;;;;1571763;74;1176;-65
2021/12/19 05:48:50;;;;;;;;;;;24.20;50.40;;;;;;1557409;74;813;-65
2021/12/19 05:50:52;;;;;;;;;;;24.20;50.40;;;;;;1571110;74;697;-66
2021/12/19 05:52:54;;;;;;;;;;;24.20;50.30;;;;;;1576834;74;713;-68
2021/12/19 05:54:56;;;;;;;;;;;24.20;50.20;;;;;;1551517;74;698;-67
2021/12/19 05:56:59;;;;;;;;;;;24.20;50.30;;;;;;1568417;74;1951;-66
2021/12/19 05:59:01;;;;;;;;;;;24.20;50.20;;;;;;1571017;74;718;-67
2021/12/19 06:01:02;;;;;;;;;;;24.30;50.30;;;;;;1590082;74;718;-66
2021/12/19 06:03:04;;;;;;;;;;;24.30;50.20;;;;;;1584751;74;712;-66
2021/12/19 06:05:06;;;;;;;;;;;24.30;50.20;;;;;;1584769;74;722;-68
2021/12/19 06:07:08;;;;;;;;;;;24.30;50.40;;;;;;1589396;74;1114;-65
2021/12/19 06:09:10;;;;;;;;;;;24.30;50.30;;;;;;1591391;74;600;-66
2021/12/19 06:11:14;;;;;;;;;;;24.30;50.20;;;;;;1593245;74;735;-65
2021/12/19 06:13:15;;;;;;;;;;;24.30;50.30;;;;;;1588335;74;1630;-66
2021/12/19 06:15:17;;;;;;;;;;;24.40;50.30;;;;;;1584727;74;1932;-65
2021/12/19 06:17:19;;;;;;;;;;;24.30;50.20;;;;;;1572587;74;841;-65
2021/12/19 06:19:21;;;;;;;;;;;24.30;50.20;;;;;;1579991;74;652;-65
2021/12/19 06:21:23;;;;;;;;;;;24.20;50.10;;;;;;1584829;74;701;-64
2021/12/19 06:23:25;;;;;;;;;;;24.30;50.20;;;;;;1585527;74;720;-64
2021/12/19 06:25:27;;;;;;;;;;;24.30;50.20;;;;;;1591120;74;1151;-65
2021/12/19 06:27:29;;;;;;;;;;;24.30;50.10;;;;;;1596791;74;677;-65
2021/12/19 06:29:32;;;;;;;;;;;24.40;50.00;;;;;;1595793;74;587;-66
2021/12/19 06:31:33;;;;;;;;;;;24.30;50.00;;;;;;1590951;74;718;-65
2021/12/19 06:33:35;;;;;;;;;;;24.30;50.00;;;;;;1573195;74;699;-66
2021/12/19 06:35:37;;;;;;;;;;;24.30;50.00;;;;;;1586034;74;1939;-66
2021/12/19 06:37:39;;;;;;;;;;;24.30;50.10;;;;;;1573999;74;757;-68
2021/12/19 06:39:41;;;;;;;;;;;24.30;50.10;;;;;;1585093;74;725;-65
2021/12/19 06:41:43;;;;;;;;;;;24.30;50.10;;;;;;1597947;74;732;-66
2021/12/19 06:43:45;;;;;;;;;;;24.40;50.10;;;;;;1586386;74;694;-66
2021/12/19 06:45:47;;;;;;;;;;;24.20;50.00;;;;;;1572518;74;1141;-66
2021/12/19 06:47:49;;;;;;;;;;;24.30;50.00;;;;;;1583721;74;711;-66
2021/12/19 06:49:51;;;;;;;;;;;24.30;50.00;;;;;;1584853;74;733;-64
2021/12/19 06:51:53;;;;;;;;;;;24.30;50.00;;;;;;1580495;74;704;-65
2021/12/19 06:53:55;;;;;;;;;;;24.30;50.10;;;;;;1587124;74;729;-66
2021/12/19 06:55:58;;;;;;;;;;;24.30;50.20;;;;;;1584704;74;1953;-65
2021/12/19 06:58:00;;;;;;;;;;;24.30;50.00;;;;;;1585075;74;1134;-65
2021/12/19 07:00:03;;;;;;;;;;;24.30;50.10;;;;;;1572868;74;661;-65
2021/12/19 07:02:05;;;;;;;;;;;24.30;50.00;;;;;;1580692;75;738;-66
2021/12/19 07:04:06;;;;;;;;;;;24.30;49.90;;;;;;1571888;75;682;-65
2021/12/19 07:06:08;;;;;;;;;;;24.30;49.80;;;;;;1578969;74;1182;-65
2021/12/19 07:08:10;;;;;;;;;;;24.30;49.80;;;;;;1558681;74;715;-65
2021/12/19 07:10:12;;;;;;;;;;;24.30;49.80;;;;;;1568552;74;698;-65
2021/12/19 07:12:14;;;;;;;;;;;24.30;49.70;;;;;;1580273;75;696;-66
2021/12/19 07:14:16;;;;;;;;;;;24.40;49.70;;;;;;1572030;75;690;-66
2021/12/19 07:16:18;;;;;;;;;;;24.30;49.70;;;;;;1574659;74;1948;-66
2021/12/19 07:18:19;;;;;;;;;;;24.40;49.70;;;;;;1574744;74;713;-67
2021/12/19 07:20:21;;;;;;;;;;;24.40;49.60;;;;;;1558747;74;762;-66
2021/12/19 07:22:23;;;;;;;;;;;24.40;49.70;;;;;;1558195;74;712;-67
2021/12/19 07:24:25;;;;;;;;;;;24.30;49.60;;;;;;1558703;74;720;-65
2021/12/19 07:26:27;;;;;;;;;;;24.40;49.60;;;;;;1569618;75;1158;-66
2021/12/19 07:28:29;;;;;;;;;;;24.40;49.60;;;;;;1575484;74;721;-65
2021/12/19 07:30:31;;;;;;;;;;;24.30;49.70;;;;;;1560893;74;602;-66
2021/12/19 07:32:34;;;;;;;;;;;24.40;49.70;;;;;;1579749;75;781;-66
2021/12/19 07:34:37;;;;;;;;;;;24.30;49.60;;;;;;1552801;75;731;-65
2021/12/19 07:36:43;;;;;;;;;;;24.40;49.60;;;;;;1558220;74;1930;-70
2021/12/19 07:38:54;;;;;;;;;;;24.30;49.70;;;;;;1574589;74;1565;-67
2021/12/19 07:40:54;;;;;;;;;;;24.20;49.70;;;;;;1546754;75;1748;-66
2021/12/19 07:42:58;;;;;;;;;;;24.30;49.80;;;;;;1518902;77;1606;-66
2021/12/19 07:44:59;;;;;;;;;;;24.30;49.80;;;;;;1534272;76;1630;-65
2021/12/19 07:47:01;;;;;;;;;;;24.30;49.80;;;;;;1549049;76;1119;-66
2021/12/19 07:49:03;;;;;;;;;;;24.20;49.80;;;;;;1516669;77;722;-66
2021/12/19 07:51:04;;;;;;;;;;;24.30;49.90;;;;;;1535105;76;730;-66
2021/12/19 07:53:08;;;;;;;;;;;24.30;50.00;;;;;;1509411;77;783;-66
2021/12/19 07:55:10;;;;;;;;;;;24.20;49.90;;;;;;1576885;74;796;-65
2021/12/19 07:57:12;;;;;;;;;;;24.20;50.00;;;;;;1565016;74;1939;-66
2021/12/19 07:59:14;;;;;;;;;;;24.20;50.10;;;;;;1563862;74;1015;-66
2021/12/19 08:01:16;;;;;;;;;;;24.20;50.10;;;;;;1552238;75;760;-65
2021/12/19 08:03:18;;;;;;;;;;;24.20;50.10;;;;;;1566239;75;696;-65
2021/12/19 08:05:21;;;;;;;;;;;24.20;50.20;;;;;;1564631;75;1192;-65
2021/12/19 08:07:23;;;;;;;;;;;24.20;50.20;;;;;;1567666;75;710;-67
2021/12/19 08:09:37;;;;;;;;;;;24.10;50.30;;;;;;1565610;75;809;-66
2021/12/19 08:11:41;;;;;;;;;;;24.00;50.20;;;;;;1560609;75;1119;-66
2021/12/19 08:13:43;;;;;;;;;;;24.20;50.30;;;;;;1561240;75;680;-65
2021/12/19 08:15:45;;;;;;;;;;;24.10;50.30;;;;;;1550641;75;1143;-66
2021/12/19 08:17:46;;;;;;;;;;;24.10;50.50;;;;;;1565099;75;1936;-66
2021/12/19 08:19:48;;;;;;;;;;;24.10;50.40;;;;;;1560940;75;734;-66
2021/12/19 08:21:52;;;;;;;;;;;24.10;50.40;;;;;;1564658;75;736;-66
2021/12/19 08:23:58;;;;;;;;;;;24.20;50.20;;;;;;1560300;75;1855;-67
2021/12/19 08:25:57;;;;;;;;;;;24.20;50.10;;;;;;1565799;75;1606;-66
2021/12/19 08:27:59;;;;;;;;;;;24.20;50.00;;;;;;1562238;75;783;-66
2021/12/19 08:30:01;;;;;;;;;;;24.30;50.00;;;;;;1548338;75;830;-66
2021/12/19 08:32:03;;;;;;;;;;;24.20;50.00;;;;;;1558083;75;727;-65
2021/12/19 08:34:05;;;;;;;;;;;24.20;50.10;;;;;;1564320;75;703;-65
2021/12/19 08:36:07;;;;;;;;;;;24.10;50.30;;;;;;1561490;75;1939;-67
2021/12/19 08:38:09;;;;;;;;;;;24.20;50.40;;;;;;1561460;75;812;-66
2021/12/19 08:40:12;;;;;;;;;;;24.30;50.30;;;;;;1563518;75;690;-66
2021/12/19 08:42:14;;;;;;;;;;;24.20;50.10;;;;;;1559806;75;724;-66
2021/12/19 08:44:15;;;;;;;;;;;24.30;50.20;;;;;;1560854;75;708;-66
2021/12/19 08:46:17;;;;;;;;;;;24.20;50.00;;;;;;1561578;75;1121;-66
2021/12/19 08:48:20;;;;;;;;;;;24.20;50.00;;;;;;1562887;75;747;-67
2021/12/19 08:50:23;;;;;;;;;;;24.20;50.10;;;;;;1565805;75;683;-66
2021/12/19 08:52:25;;;;;;;;;;;24.20;50.10;;;;;;1566793;75;744;-66
2021/12/19 08:54:26;;;;;;;;;;;24.20;50.20;;;;;;1560688;75;771;-66
2021/12/19 08:56:28;;;;;;;;;;;24.10;50.20;;;;;;1558151;75;1963;-66
2021/12/19 08:58:30;;;;;;;;;;;24.10;50.20;;;;;;1554946;75;828;-66
2021/12/19 09:00:33;;;;;;;;;;;24.00;50.20;;;;;;1580159;74;1303;-66
2021/12/19 09:02:35;;;;;;;;;;;24.00;50.20;;;;;;1578993;74;757;-66
2021/12/19 09:04:37;;;;;;;;;;;24.10;50.30;;;;;;1574862;74;950;-66
2021/12/19 09:06:39;;;;;;;;;;;24.00;50.20;;;;;;1571644;74;1127;-67
2021/12/19 09:08:41;;;;;;;;;;;24.00;50.20;;;;;;1565840;74;782;-66
2021/12/19 09:10:43;;;;;;;;;;;24.00;50.20;;;;;;1569001;74;575;-67
2021/12/19 09:12:45;;;;;;;;;;;24.00;50.20;;;;;;1585440;74;738;-66
2021/12/19 09:14:47;;;;;;;;;;;24.00;50.20;;;;;;1573744;74;733;-66
2021/12/19 09:16:49;;;;;;;;;;;24.00;50.20;;;;;;1581964;74;1944;-66
2021/12/19 09:18:51;;;;;;;;;;;24.00;50.20;;;;;;1584582;74;665;-68
2021/12/19 09:20:53;;;;;;;;;;;24.00;50.20;;;;;;1581112;74;806;-65
2021/12/19 09:22:55;;;;;;;;;;;24.00;50.20;;;;;;1583157;74;787;-65
2021/12/19 09:24:57;;;;;;;;;;;23.90;50.30;;;;;;1583079;74;788;-67
2021/12/19 09:27:00;;;;;;;;;;;24.00;50.30;;;;;;1569246;74;1135;-65
2021/12/19 09:29:02;;;;;;;;;;;23.90;50.30;;;;;;1568931;74;764;-66
2021/12/19 09:31:04;;;;;;;;;;;24.00;50.30;;;;;;1580728;74;662;-66
2021/12/19 09:33:06;;;;;;;;;;;24.00;50.20;;;;;;1571815;74;689;-66
2021/12/19 09:35:08;;;;;;;;;;;23.90;50.30;;;;;;1572422;74;854;-67
2021/12/19 09:37:10;;;;;;;;;;;24.00;50.30;;;;;;1568881;74;1942;-66
2021/12/19 09:39:12;;;;;;;;;;;24.00;50.20;;;;;;1576479;74;752;-66
2021/12/19 09:41:14;;;;;;;;;;;24.00;50.20;;;;;;1588856;74;734;-66
2021/12/19 09:43:49;;;;;;;;;;;24.00;50.20;;;;;;1574775;74;729;-66
2021/12/19 09:45:25;;;;;;;;;;;24.00;50.20;;;;;;1567617;74;1536;-67
2021/12/19 09:47:27;;;;;;;;;;;23.90;50.10;;;;;;1579033;74;728;-68
2021/12/19 09:49:29;;;;;;;;;;;23.90;50.00;;;;;;1577378;74;677;-66
2021/12/19 09:51:31;;;;;;;;;;;23.90;50.10;;;;;;1571150;74;777;-67
2021/12/19 09:53:33;;;;;;;;;;;23.90;50.00;;;;;;1585139;74;717;-68
2021/12/19 09:55:35;;;;;;;;;;;24.00;50.00;;;;;;1580388;74;1151;-66
2021/12/19 09:57:37;;;;;;;;;;;23.90;50.00;;;;;;1575158;74;1930;-65
2021/12/19 09:59:39;;;;;;;;;;;24.00;50.00;;;;;;1566469;74;1150;-65
2021/12/19 10:01:41;;;;;;;;;;;23.90;50.00;;;;;;1571287;75;779;-68
2021/12/19 10:03:42;;;;;;;;;;;23.90;50.00;;;;;;1579024;74;790;-65
2021/12/19 10:05:44;;;;;;;;;;;23.90;49.90;;;;;;1580288;75;1161;-65
2021/12/19 10:07:48;;;;;;;;;;;23.90;49.90;;;;;;1567188;74;707;-66
2021/12/19 10:10:11;;;;;;;;;;;23.90;49.90;;;;;;1572846;75;1116;-64
2021/12/19 10:14:28;;;;;;;;;;;24.00;49.70;;;;;;1532601;75;1140;-65
2021/12/19 10:16:34;;;;;;;;;;;24.00;49.70;;;;;;1571664;74;1156;-65
2021/12/19 10:18:35;;;;;;;;;;;24.00;49.60;;;;;;1559182;75;1925;-65
2021/12/19 10:20:41;;;;;;;;;;;24.00;49.60;;;;;;1523398;76;1241;-66
2021/12/19 10:22:44;;;;;;;;;;;24.00;49.60;;;;;;1534081;76;745;-68
2021/12/19 10:24:46;;;;;;;;;;;24.00;49.60;;;;;;1527228;77;1757;-66
2021/12/19 10:26:49;;;;;;;;;;;23.90;49.60;;;;;;1570957;74;1141;-66
2021/12/19 10:28:52;;;;;;;;;;;24.00;49.60;;;;;;1578904;74;729;-67
2021/12/19 10:30:54;;;;;;;;;;;23.90;49.60;;;;;;1573256;74;1008;-65
2021/12/19 10:33:00;;;;;;;;;;;23.90;49.60;;;;;;1568797;74;739;-65
2021/12/19 10:35:14;;;;;;;;;;;24.00;49.50;;;;;;1567424;74;739;-67
2021/12/19 10:37:32;;;;;;;;;;;24.00;49.50;;;;;;1565780;74;1928;-71
2021/12/19 10:39:37;;;;;;;;;;;23.90;49.50;;;;;;1572573;74;762;-69
2021/12/19 10:41:42;;;;;;;;;;;24.00;49.50;;;;;;1577619;74;764;-68
2021/12/19 10:43:45;;;;;;;;;;;24.00;49.40;;;;;;1572723;74;1614;-68
2021/12/19 10:45:48;;;;;;;;;;;24.00;49.30;;;;;;1573016;74;1162;-68
2021/12/19 10:47:49;;;;;;;;;;;24.00;49.40;;;;;;1574865;74;679;-67
2021/12/19 10:49:51;;;;;;;;;;;24.00;49.30;;;;;;1569708;74;729;-67
2021/12/19 10:51:53;;;;;;;;;;;24.00;49.30;;;;;;1570805;74;732;-67
2021/12/19 10:53:56;;;;;;;;;;;24.00;49.30;;;;;;1570242;74;698;-66
2021/12/19 10:55:58;;;;;;;;;;;24.00;49.20;;;;;;1573898;74;1147;-68
2021/12/19 10:57:59;;;;;;;;;;;23.90;49.30;;;;;;1576582;74;1928;-68
2021/12/19 11:00:02;;;;;;;;;;;24.00;49.20;;;;;;1567529;74;976;-67
2021/12/19 11:02:04;;;;;;;;;;;24.00;49.20;;;;;;1580323;74;699;-68
2021/12/19 11:04:07;;;;;;;;;;;24.00;49.20;;;;;;1578412;74;708;-68
2021/12/19 11:06:16;;;;;;;;;;;24.00;49.20;;;;;;1575022;74;1186;-69
2021/12/19 11:08:18;;;;;;;;;;;24.00;49.20;;;;;;1564367;74;1109;-68
2021/12/19 11:10:28;;;;;;;;;;;24.00;49.10;;;;;;1575983;74;709;-68
2021/12/19 11:12:30;;;;;;;;;;;24.00;49.10;;;;;;1584973;74;1061;-70
2021/12/19 11:14:32;;;;;;;;;;;24.00;49.00;;;;;;1568141;74;627;-70
2021/12/19 11:16:34;;;;;;;;;;;24.10;49.10;;;;;;1578621;74;1135;-66
2021/12/19 11:18:36;;;;;;;;;;;24.00;49.00;;;;;;1572625;74;1933;-67
2021/12/19 11:20:38;;;;;;;;;;;24.00;49.00;;;;;;1571691;74;763;-68
2021/12/19 11:22:40;;;;;;;;;;;24.10;49.10;;;;;;1565774;74;760;-68
2021/12/19 11:24:43;;;;;;;;;;;24.00;49.00;;;;;;1575718;74;743;-66
2021/12/19 11:26:45;;;;;;;;;;;24.00;49.10;;;;;;1565642;74;1181;-66
2021/12/19 11:28:48;;;;;;;;;;;24.00;49.20;;;;;;1569769;74;742;-66
2021/12/19 11:30:50;;;;;;;;;;;24.00;49.50;;;;;;1566530;74;700;-65
2021/12/19 11:33:05;;;;;;;;;;;24.00;49.70;;;;;;1570960;74;705;-65
2021/12/19 11:35:12;;;;;;;;;;;24.10;49.90;;;;;;1575857;74;757;-66
2021/12/19 11:37:15;;;;;;;;;;;24.10;50.40;;;;;;1569359;74;1942;-66
2021/12/19 11:39:17;;;;;;;;;;;24.00;50.20;;;;;;1575217;74;727;-67
2021/12/19 11:41:19;;;;;;;;;;;24.10;50.50;;;;;;1575714;74;707;-64
2021/12/19 11:43:21;;;;;;;;;;;24.10;50.70;;;;;;1572504;74;815;-65
2021/12/19 11:45:35;;;;;;;;;;;24.10;51.10;;;;;;1575622;74;1068;-66
2021/12/19 11:47:48;;;;;;;;;;;24.00;51.00;;;;;;1575545;74;1555;-68
2021/12/19 11:49:49;;;;;;;;;;;24.10;51.30;;;;;;1574815;74;1978;-67
2021/12/19 11:51:53;;;;;;;;;;;24.00;51.10;;;;;;1575350;74;1614;-66
2021/12/19 11:53:55;;;;;;;;;;;24.10;51.10;;;;;;1584035;74;1048;-68
2021/12/19 11:55:59;;;;;;;;;;;24.00;50.80;;;;;;1544775;76;1202;-67
2021/12/19 11:58:11;;;;;;;;;;;24.00;51.00;;;;;;1576653;74;1890;-66
2021/12/19 12:00:26;;;;;;;;;;;24.00;51.00;;;;;;1577274;74;1045;-64
2021/12/19 12:02:28;;;;;;;;;;;24.10;51.30;;;;;;1566009;74;703;-66
2021/12/19 12:04:31;;;;;;;;;;;24.00;51.00;;;;;;1583245;74;791;-65
2021/12/19 12:06:33;;;;;;;;;;;24.00;51.00;;;;;;1570715;74;1204;-68
2021/12/19 12:08:35;;;;;;;;;;;24.00;51.00;;;;;;1563451;75;752;-66
2021/12/19 12:10:51;;;;;;;;;;;24.00;50.90;;;;;;1576816;74;808;-66
2021/12/19 12:12:53;;;;;;;;;;;24.00;50.80;;;;;;1574670;74;604;-65
2021/12/19 12:14:58;;;;;;;;;;;24.00;50.70;;;;;;1567731;74;825;-68
2021/12/19 12:17:04;;;;;;;;;;;24.00;50.70;;;;;;1566214;75;1121;-68
2021/12/19 12:19:06;;;;;;;;;;;24.00;50.60;;;;;;1571309;74;1909;-69
2021/12/19 12:21:24;;;;;;;;;;;24.00;50.50;;;;;;1567093;74;722;-65
2021/12/19 12:23:26;;;;;;;;;;;24.00;50.50;;;;;;1566245;74;1413;-66
2021/12/19 12:25:31;;;;;;;;;;;24.00;50.40;;;;;;1573766;74;1129;-65
2021/12/19 12:27:34;;;;;;;;;;;24.00;50.40;;;;;;1571941;74;1614;-67
2021/12/19 12:29:35;;;;;;;;;;;23.90;50.40;;;;;;1575735;74;1686;-66
2021/12/19 12:31:37;;;;;;;;;;;23.90;50.20;;;;;;1575069;74;765;-64
2021/12/19 12:33:40;;;;;;;;;;;23.90;50.30;;;;;;1580363;74;799;-66
2021/12/19 12:35:42;;;;;;;;;;;23.90;50.30;;;;;;1572840;74;1149;-66
2021/12/19 12:37:44;;;;;;;;;;;23.90;50.20;;;;;;1571653;74;1935;-66
2021/12/19 12:39:46;;;;;;;;;;;23.90;50.20;;;;;;1573723;74;722;-66
2021/12/19 12:41:58;;;;;;;;;;;23.90;50.10;;;;;;1576951;74;752;-66
2021/12/19 12:43:51;;;;;;;;;;;23.90;50.10;;;;;;1558995;75;1613;-65
2021/12/19 12:46:04;;;;;;;;;;;23.90;50.00;;;;;;1563747;74;1157;-63
2021/12/19 12:48:05;;;;;;;;;;;23.80;49.90;;;;;;1569741;74;860;-63
2021/12/19 12:50:08;;;;;;;;;;;23.90;50.00;;;;;;1576009;74;781;-62
2021/12/19 12:52:10;;;;;;;;;;;23.80;49.80;;;;;;1573643;74;731;-66
2021/12/19 12:54:14;;;;;;;;;;;23.80;49.80;;;;;;1575130;74;658;-64
2021/12/19 12:56:20;;;;;;;;;;;23.80;49.70;;;;;;1574340;74;1165;-66
2021/12/19 12:58:22;;;;;;;;;;;23.80;49.20;;;;;;1566219;75;1909;-65
2021/12/19 13:00:29;;;;;;;;;;;23.80;47.90;;;;;;1564429;74;1058;-63
2021/12/19 13:02:40;;;;;;;;;;;23.70;46.70;;;;;;1575961;74;1127;-63
2021/12/19 13:04:33;;;;;;;;;;;23.70;45.80;;;;;;1569223;75;1641;-63
2021/12/19 13:06:39;;;;;;;;;;;23.60;45.20;;;;;;1562413;74;1150;-65
2021/12/19 13:08:41;;;;;;;;;;;23.60;44.70;;;;;;1570207;74;1636;-65
2021/12/19 13:10:43;;;;;;;;;;;23.60;44.20;;;;;;1566686;74;715;-65